createdAt,value
2018-04-15T00:01:25.900Z,12.52
2018-04-15T00:03:54.453Z,12.52
2018-04-15T00:06:23.131Z,12.50
2018-04-15T00:08:51.874Z,12.51
2018-04-15T00:11:20.256Z,12.48
2018-04-15T00:13:50.489Z,12.44
2018-04-15T00:16:19.041Z,12.41
2018-04-15T00:18:47.444Z,12.43
2018-04-15T00:21:15.924Z,12.43
2018-04-15T00:23:44.301Z,12.44
2018-04-15T00:26:12.693Z,12.45
2018-04-15T00:28:41.068Z,12.48
2018-04-15T00:31:10.155Z,12.52
2018-04-15T00:33:38.717Z,12.56
2018-04-15T00:36:07.161Z,12.59
2018-04-15T00:38:35.540Z,12.61
2018-04-15T00:41:03.895Z,12.58
2018-04-15T00:43:32.463Z,12.57
2018-04-15T00:46:01.060Z,12.62
2018-04-15T00:48:29.477Z,12.69
2018-04-15T00:50:57.882Z,12.72
2018-04-15T00:53:26.525Z,12.75
2018-04-15T00:55:55.120Z,12.77
2018-04-15T00:58:23.475Z,12.79
2018-04-15T01:00:51.923Z,12.75
2018-04-15T01:03:20.441Z,12.73
2018-04-15T01:05:50.653Z,12.69
2018-04-15T01:08:19.056Z,12.65
2018-04-15T01:10:47.990Z,12.59
2018-04-15T01:13:16.700Z,12.55
2018-04-15T01:15:45.249Z,12.52
2018-04-15T01:18:13.874Z,12.51
2018-04-15T01:20:42.663Z,12.49
2018-04-15T01:23:11.080Z,12.48
2018-04-15T01:25:39.599Z,12.47
2018-04-15T01:28:08.042Z,12.46
2018-04-15T01:30:36.645Z,12.43
2018-04-15T01:33:05.216Z,12.41
2018-04-15T01:35:35.199Z,12.39
2018-04-15T01:38:03.895Z,12.34
2018-04-15T01:40:32.623Z,12.30
2018-04-15T01:43:01.049Z,12.26
2018-04-15T01:45:29.475Z,12.19
2018-04-15T01:47:57.987Z,12.15
2018-04-15T01:50:26.616Z,12.12
2018-04-15T01:52:55.421Z,12.10
2018-04-15T01:55:24.194Z,12.09
2018-04-15T01:57:53.008Z,12.08
2018-04-15T02:00:21.366Z,12.06
2018-04-15T02:02:49.863Z,12.05
2018-04-15T02:05:18.858Z,12.00
2018-04-15T02:07:47.259Z,11.97
2018-04-15T02:10:16.013Z,11.90
2018-04-15T02:12:44.382Z,11.83
2018-04-15T02:15:13.594Z,11.73
2018-04-15T02:17:42.058Z,11.66
2018-04-15T02:20:10.448Z,11.59
2018-04-15T02:22:39.076Z,11.51
2018-04-15T02:25:07.939Z,11.45
2018-04-15T02:27:36.648Z,11.46
2018-04-15T02:30:05.313Z,11.42
2018-04-15T02:32:33.684Z,11.39
2018-04-15T02:35:02.919Z,11.33
2018-04-15T02:37:31.379Z,11.26
2018-04-15T02:40:00.222Z,11.23
2018-04-15T02:42:28.690Z,11.18
2018-04-15T02:44:57.204Z,11.14
2018-04-15T02:47:26.566Z,11.11
2018-04-15T02:49:55.341Z,11.11
2018-04-15T02:52:23.772Z,11.12
2018-04-15T02:54:52.131Z,11.13
2018-04-15T02:57:20.917Z,11.13
2018-04-15T02:59:49.642Z,11.15
2018-04-15T03:02:18.039Z,11.15
2018-04-15T03:04:46.864Z,11.09
2018-04-15T03:07:15.549Z,11.04
2018-04-15T03:09:44.689Z,10.99
2018-04-15T03:12:13.202Z,10.98
2018-04-15T03:14:42.348Z,10.99
2018-04-15T03:17:10.752Z,10.94
2018-04-15T03:19:39.115Z,10.94
2018-04-15T03:22:07.720Z,10.95
2018-04-15T03:24:36.261Z,10.96
2018-04-15T03:27:04.636Z,10.96
2018-04-15T03:29:32.999Z,10.96
2018-04-15T03:32:01.693Z,10.98
2018-04-15T03:34:30.848Z,11.00
2018-04-15T03:36:59.325Z,11.02
2018-04-15T03:39:28.587Z,11.01
2018-04-15T03:41:57.121Z,11.01
2018-04-15T03:44:25.936Z,11.02
2018-04-15T03:46:54.312Z,11.02
2018-04-15T03:49:22.974Z,11.00
2018-04-15T03:51:51.599Z,10.95
2018-04-15T03:54:20.060Z,10.90
2018-04-15T03:56:48.574Z,10.87
2018-04-15T03:59:17.380Z,10.85
2018-04-15T04:01:45.955Z,10.78
2018-04-15T04:04:14.425Z,10.73
2018-04-15T04:06:42.841Z,10.70
2018-04-15T04:09:11.260Z,10.68
2018-04-15T04:11:39.619Z,10.65
2018-04-15T04:14:07.975Z,10.63
2018-04-15T04:16:36.779Z,10.65
2018-04-15T04:19:17.083Z,10.69
2018-04-15T04:21:58.613Z,10.73
2018-04-15T04:24:38.731Z,10.73
2018-04-15T04:27:07.251Z,10.73
2018-04-15T04:29:35.634Z,10.71
2018-04-15T04:32:04.320Z,10.73
2018-04-15T04:34:33.069Z,10.78
2018-04-15T04:37:01.544Z,10.84
2018-04-15T04:39:30.489Z,10.93
2018-04-15T04:41:58.876Z,11.00
2018-04-15T04:44:27.239Z,11.03
2018-04-15T04:46:55.941Z,11.10
2018-04-15T04:49:24.314Z,11.17
2018-04-15T04:51:53.057Z,11.25
2018-04-15T04:54:22.980Z,11.37
2018-04-15T04:56:51.335Z,11.61
2018-04-15T04:59:19.700Z,11.77
2018-04-15T05:01:48.051Z,11.83
2018-04-15T05:04:16.503Z,11.86
2018-04-15T05:06:44.890Z,11.91
2018-04-15T05:09:13.672Z,11.99
2018-04-15T05:11:43.004Z,12.04
2018-04-15T05:14:11.805Z,12.08
2018-04-15T05:16:40.561Z,12.14
2018-04-15T05:19:08.941Z,12.21
2018-04-15T05:21:37.420Z,12.21
2018-04-15T05:24:05.831Z,12.22
2018-04-15T05:26:34.790Z,12.28
2018-04-15T05:29:03.588Z,12.33
2018-04-15T05:31:33.231Z,12.39
2018-04-15T05:34:01.708Z,12.48
2018-04-15T05:36:30.530Z,12.55
2018-04-15T05:38:58.983Z,12.66
2018-04-15T05:41:27.523Z,12.76
2018-04-15T05:43:56.406Z,12.86
2018-04-15T05:46:25.068Z,12.91
2018-04-15T05:48:54.032Z,12.93
2018-04-15T05:51:23.007Z,13.00
2018-04-15T05:53:51.729Z,13.07
2018-04-15T05:56:20.422Z,13.15
2018-04-15T05:58:49.039Z,13.25
2018-04-15T06:01:17.702Z,13.35
2018-04-15T06:03:46.465Z,13.45
2018-04-15T06:06:15.365Z,13.56
2018-04-15T06:08:43.853Z,13.72
2018-04-15T06:11:12.423Z,13.89
2018-04-15T06:13:41.079Z,14.03
2018-04-15T06:16:09.806Z,14.12
2018-04-15T06:18:38.201Z,14.23
2018-04-15T06:21:06.829Z,14.41
2018-04-15T06:23:35.474Z,14.61
2018-04-15T06:26:05.431Z,14.73
2018-04-15T06:28:34.088Z,14.82
2018-04-15T06:31:02.764Z,14.90
2018-04-15T06:33:31.226Z,14.95
2018-04-15T06:35:59.636Z,14.97
2018-04-15T06:38:28.220Z,15.02
2018-04-15T06:40:56.888Z,15.10
2018-04-15T06:43:25.304Z,15.25
2018-04-15T06:45:53.724Z,15.35
2018-04-15T06:48:22.514Z,15.45
2018-04-15T06:50:50.936Z,15.52
2018-04-15T06:53:19.605Z,15.60
2018-04-15T06:55:48.551Z,15.69
2018-04-15T06:58:16.955Z,15.77
2018-04-15T07:00:45.312Z,15.83
2018-04-15T07:03:13.672Z,15.86
2018-04-15T07:05:42.704Z,15.86
2018-04-15T07:08:11.065Z,15.89
2018-04-15T07:10:39.911Z,15.92
2018-04-15T07:13:08.516Z,15.99
2018-04-15T07:15:36.911Z,16.09
2018-04-15T07:18:05.461Z,16.23
2018-04-15T07:20:34.395Z,16.30
2018-04-15T07:23:03.525Z,16.31
2018-04-15T07:25:33.021Z,16.36
2018-04-15T07:28:02.336Z,16.46
2018-04-15T07:30:31.296Z,16.43
2018-04-15T07:32:59.741Z,16.49
2018-04-15T07:35:29.261Z,16.53
2018-04-15T07:37:57.678Z,16.56
2018-04-15T07:40:26.615Z,16.57
2018-04-15T07:42:55.571Z,16.64
2018-04-15T07:45:24.407Z,16.80
2018-04-15T07:47:53.501Z,16.89
2018-04-15T07:50:22.195Z,16.98
2018-04-15T07:52:50.553Z,17.01
2018-04-15T07:55:19.341Z,17.06
2018-04-15T07:57:48.748Z,17.19
2018-04-15T08:00:17.364Z,17.27
2018-04-15T08:02:48.661Z,17.35
2018-04-15T08:05:17.154Z,17.40
2018-04-15T08:07:47.892Z,17.49
2018-04-15T08:10:16.326Z,17.60
2018-04-15T08:12:45.817Z,17.71
2018-04-15T08:15:14.379Z,17.78
2018-04-15T08:17:42.968Z,17.89
2018-04-15T08:20:11.640Z,17.96
2018-04-15T08:22:40.157Z,17.98
2018-04-15T08:25:08.531Z,18.06
2018-04-15T08:27:37.253Z,18.13
2018-04-15T08:30:05.723Z,18.22
2018-04-15T08:32:35.017Z,18.33
2018-04-15T08:35:04.158Z,18.36
2018-04-15T08:37:32.636Z,18.35
2018-04-15T08:40:01.654Z,18.50
2018-04-15T08:42:30.509Z,18.64
2018-04-15T08:45:01.036Z,18.77
2018-04-15T08:47:30.460Z,18.90
2018-04-15T08:49:59.107Z,18.96
2018-04-15T08:52:27.765Z,19.00
2018-04-15T08:54:56.248Z,19.22
2018-04-15T08:57:25.039Z,19.41
2018-04-15T08:59:53.471Z,19.54
2018-04-15T09:02:22.037Z,19.64
2018-04-15T09:04:51.948Z,19.76
2018-04-15T09:07:20.335Z,19.89
2018-04-15T09:09:48.994Z,19.99
2018-04-15T09:12:17.667Z,20.07
2018-04-15T09:14:47.147Z,20.09
2018-04-15T09:17:15.814Z,20.06
2018-04-15T09:19:44.540Z,20.06
2018-04-15T09:22:14.974Z,20.13
2018-04-15T09:24:45.239Z,20.10
2018-04-15T09:27:14.166Z,20.13
2018-04-15T09:29:44.004Z,20.21
2018-04-15T09:32:12.386Z,20.30
2018-04-15T09:34:42.110Z,20.35
2018-04-15T09:37:10.708Z,20.37
2018-04-15T09:39:41.315Z,20.40
2018-04-15T09:42:11.361Z,20.46
2018-04-15T09:44:40.087Z,20.53
2018-04-15T09:47:10.251Z,20.60
2018-04-15T09:49:38.732Z,20.66
2018-04-15T09:52:08.441Z,20.74
2018-04-15T09:54:36.865Z,20.92
2018-04-15T09:57:06.965Z,21.08
2018-04-15T09:59:36.247Z,21.20
2018-04-15T10:02:05.034Z,21.40
2018-04-15T10:04:33.439Z,21.61
2018-04-15T10:07:01.876Z,21.69
2018-04-15T10:09:30.691Z,21.79
2018-04-15T10:11:59.446Z,21.76
2018-04-15T10:14:28.123Z,21.72
2018-04-15T10:16:56.977Z,21.80
2018-04-15T10:19:26.219Z,21.93
2018-04-15T10:21:55.788Z,22.00
2018-04-15T10:24:24.303Z,21.99
2018-04-15T10:26:52.962Z,22.04
2018-04-15T10:29:21.596Z,22.07
2018-04-15T10:31:50.021Z,22.09
2018-04-15T10:34:18.964Z,22.26
2018-04-15T10:36:47.428Z,22.30
2018-04-15T10:39:16.886Z,22.29
2018-04-15T10:41:45.790Z,22.30
2018-04-15T10:44:14.607Z,22.26
2018-04-15T10:46:43.366Z,22.24
2018-04-15T10:49:12.055Z,22.36
2018-04-15T10:51:40.424Z,22.44
2018-04-15T10:54:09.090Z,22.41
2018-04-15T10:56:37.730Z,22.36
2018-04-15T10:59:07.376Z,22.48
2018-04-15T11:01:36.387Z,22.61
2018-04-15T11:04:05.509Z,22.76
2018-04-15T11:06:33.878Z,22.91
2018-04-15T11:09:02.261Z,22.90
2018-04-15T11:11:31.289Z,22.92
2018-04-15T11:13:59.656Z,22.98
2018-04-15T11:16:28.084Z,22.93
2018-04-15T11:18:56.491Z,22.87
2018-04-15T11:21:25.162Z,22.72
2018-04-15T11:23:53.920Z,22.70
2018-04-15T11:26:22.502Z,22.77
2018-04-15T11:28:52.490Z,22.94
2018-04-15T11:31:21.284Z,23.03
2018-04-15T11:33:49.870Z,22.97
2018-04-15T11:36:19.195Z,22.98
2018-04-15T11:38:47.731Z,23.09
2018-04-15T11:41:16.948Z,23.32
2018-04-15T11:43:45.343Z,23.49
2018-04-15T11:46:13.706Z,23.64
2018-04-15T11:48:42.066Z,23.90
2018-04-15T11:51:10.440Z,23.99
2018-04-15T11:53:39.420Z,24.04
2018-04-15T11:56:08.312Z,24.17
2018-04-15T11:58:37.688Z,24.17
2018-04-15T12:01:06.149Z,24.11
2018-04-15T12:03:34.755Z,24.11
2018-04-15T12:06:03.332Z,24.06
2018-04-15T12:08:31.741Z,24.21
2018-04-15T12:11:00.248Z,24.44
2018-04-15T12:13:28.610Z,24.75
2018-04-15T12:15:57.142Z,25.02
2018-04-15T12:18:25.548Z,25.11
2018-04-15T12:20:53.942Z,25.10
2018-04-15T12:23:23.085Z,25.10
2018-04-15T12:25:51.552Z,25.21
2018-04-15T12:28:20.155Z,25.15
2018-04-15T12:30:49.236Z,25.61
2018-04-15T12:33:18.575Z,25.96
2018-04-15T12:35:47.759Z,26.23
2018-04-15T12:38:17.097Z,26.47
2018-04-15T12:40:45.455Z,26.75
2018-04-15T12:43:13.838Z,26.52
2018-04-15T12:45:42.231Z,26.43
2018-04-15T12:48:10.662Z,26.48
2018-04-15T12:50:39.121Z,26.40
2018-04-15T12:53:07.926Z,26.37
2018-04-15T12:55:36.320Z,26.44
2018-04-15T12:58:04.962Z,26.54
2018-04-15T13:00:33.671Z,26.72
2018-04-15T13:03:02.364Z,26.95
2018-04-15T13:05:30.729Z,26.96
2018-04-15T13:07:59.092Z,27.12
2018-04-15T13:10:27.588Z,27.32
2018-04-15T13:12:55.973Z,27.96
2018-04-15T13:15:24.404Z,28.20
2018-04-15T13:17:53.529Z,28.46
2018-04-15T13:20:21.890Z,28.77
2018-04-15T13:22:50.270Z,28.97
2018-04-15T13:25:18.656Z,28.65
2018-04-15T13:27:46.999Z,27.99
2018-04-15T13:30:15.354Z,27.80
2018-04-15T13:32:43.703Z,28.18
2018-04-15T13:35:12.110Z,28.37
2018-04-15T13:37:40.480Z,28.67
2018-04-15T13:40:09.077Z,29.07
2018-04-15T13:42:37.767Z,29.12
2018-04-15T13:45:06.133Z,28.71
2018-04-15T13:47:34.523Z,28.53
2018-04-15T13:50:02.937Z,28.30
2018-04-15T13:52:31.300Z,28.42
2018-04-15T13:54:59.734Z,28.40
2018-04-15T13:57:28.512Z,28.18
2018-04-15T13:59:57.236Z,28.43
2018-04-15T14:02:25.594Z,28.73
2018-04-15T14:04:54.022Z,28.22
2018-04-15T14:07:22.980Z,28.25
2018-04-15T14:09:51.332Z,28.54
2018-04-15T14:12:20.024Z,28.66
2018-04-15T14:14:48.394Z,29.18
2018-04-15T14:17:17.011Z,29.52
2018-04-15T14:19:45.373Z,29.73
2018-04-15T14:22:13.748Z,29.76
2018-04-15T14:24:42.151Z,30.10
2018-04-15T14:27:10.520Z,30.53
2018-04-15T14:29:38.884Z,30.87
2018-04-15T14:32:07.595Z,30.84
2018-04-15T14:34:35.947Z,30.55
2018-04-15T14:37:04.659Z,30.86
2018-04-15T14:39:33.020Z,31.00
2018-04-15T14:42:01.834Z,31.25
2018-04-15T14:44:30.183Z,31.61
2018-04-15T14:46:58.675Z,30.95
2018-04-15T14:49:27.046Z,30.31
2018-04-15T14:51:55.413Z,30.38
2018-04-15T14:54:23.766Z,30.53
2018-04-15T14:56:52.596Z,30.47
2018-04-15T14:59:21.043Z,30.63
2018-04-15T15:01:49.394Z,30.63
2018-04-15T15:04:17.748Z,30.60
2018-04-15T15:06:46.170Z,30.36
2018-04-15T15:09:14.787Z,30.22
2018-04-15T15:11:43.221Z,29.90
2018-04-15T15:14:11.566Z,29.79
2018-04-15T15:16:39.923Z,29.99
2018-04-15T15:19:08.285Z,30.43
2018-04-15T15:21:36.796Z,30.81
2018-04-15T15:24:05.159Z,30.62
2018-04-15T15:26:33.528Z,30.45
2018-04-15T15:29:01.894Z,30.43
2018-04-15T15:31:30.264Z,30.00
2018-04-15T15:33:58.891Z,29.74
2018-04-15T15:36:27.334Z,29.80
2018-04-15T15:38:55.694Z,29.35
2018-04-15T15:41:24.270Z,28.75
2018-04-15T15:43:52.629Z,28.70
2018-04-15T15:46:20.981Z,29.07
2018-04-15T15:48:49.347Z,29.40
2018-04-15T15:51:17.693Z,29.42
2018-04-15T15:53:46.102Z,28.86
2018-04-15T15:56:14.789Z,28.01
2018-04-15T15:58:43.850Z,27.36
2018-04-15T16:01:12.207Z,26.70
2018-04-15T16:03:40.586Z,26.26
2018-04-15T16:06:09.437Z,26.34
2018-04-15T16:08:38.150Z,26.36
2018-04-15T16:11:06.569Z,26.04
2018-04-15T16:13:35.235Z,25.73
2018-04-15T16:16:04.621Z,25.33
2018-04-15T16:18:33.000Z,25.02
2018-04-15T16:21:01.370Z,24.78
2018-04-15T16:23:30.083Z,24.53
2018-04-15T16:25:58.455Z,24.16
2018-04-15T16:28:27.140Z,23.82
2018-04-15T16:30:55.545Z,23.69
2018-04-15T16:33:23.912Z,23.60
2018-04-15T16:35:52.280Z,23.50
2018-04-15T16:38:20.633Z,23.46
2018-04-15T16:40:49.278Z,23.37
2018-04-15T16:43:17.883Z,23.27
2018-04-15T16:45:46.528Z,23.08
2018-04-15T16:48:15.010Z,22.89
2018-04-15T16:50:43.474Z,22.75
2018-04-15T16:53:12.397Z,22.48
2018-04-15T16:55:40.766Z,22.13
2018-04-15T16:58:10.903Z,21.84
2018-04-15T17:00:39.368Z,21.66
2018-04-15T17:03:07.742Z,21.55
2018-04-15T17:05:36.438Z,21.41
2018-04-15T17:08:04.811Z,21.26
2018-04-15T17:10:33.575Z,21.05
2018-04-15T17:13:01.952Z,20.95
2018-04-15T17:15:31.237Z,20.85
2018-04-15T17:17:59.903Z,20.68
2018-04-15T17:20:28.557Z,20.61
2018-04-15T17:22:56.934Z,20.55
2018-04-15T17:25:25.618Z,20.50
2018-04-15T17:27:53.985Z,20.43
2018-04-15T17:30:22.687Z,20.33
2018-04-15T17:32:52.477Z,20.27
2018-04-15T17:35:20.840Z,20.25
2018-04-15T17:37:49.243Z,20.24
2018-04-15T17:40:17.647Z,20.21
2018-04-15T17:42:46.346Z,20.16
2018-04-15T17:45:14.716Z,20.04
2018-04-15T17:47:43.508Z,19.96
2018-04-15T17:50:11.869Z,19.87
2018-04-15T17:52:40.251Z,19.78
2018-04-15T17:55:09.013Z,19.71
2018-04-15T17:57:37.756Z,19.65
2018-04-15T18:00:06.252Z,19.54
2018-04-15T18:02:35.055Z,19.44
2018-04-15T18:05:03.716Z,19.40
2018-04-15T18:07:32.104Z,19.34
2018-04-15T18:10:00.478Z,19.30
2018-04-15T18:12:28.870Z,19.23
2018-04-15T18:14:57.565Z,19.14
2018-04-15T18:17:26.653Z,19.05
2018-04-15T18:19:55.142Z,18.97
2018-04-15T18:22:23.824Z,18.87
2018-04-15T18:24:52.549Z,18.74
2018-04-15T18:27:21.229Z,18.69
2018-04-15T18:29:49.909Z,18.59
2018-04-15T18:32:18.601Z,18.51
2018-04-15T18:34:47.132Z,18.47
2018-04-15T18:37:15.677Z,18.46
2018-04-15T18:39:44.445Z,18.41
2018-04-15T18:42:14.112Z,18.36
2018-04-15T18:44:42.849Z,18.35
2018-04-15T18:47:11.218Z,18.32
2018-04-15T18:49:39.713Z,18.27
2018-04-15T18:52:08.091Z,18.16
2018-04-15T18:54:37.514Z,18.06
2018-04-15T18:57:06.286Z,18.01
2018-04-15T18:59:34.853Z,17.90
2018-04-15T19:02:04.438Z,17.82
2018-04-15T19:04:33.013Z,17.72
2018-04-15T19:07:01.508Z,17.64
2018-04-15T19:09:30.551Z,17.56
2018-04-15T19:11:58.925Z,17.51
2018-04-15T19:14:29.026Z,17.43
2018-04-15T19:16:58.223Z,17.37
2018-04-15T19:19:26.597Z,17.31
2018-04-15T19:21:54.986Z,17.22
2018-04-15T19:24:23.347Z,17.12
2018-04-15T19:26:51.700Z,17.06
2018-04-15T19:29:20.793Z,17.01
2018-04-15T19:31:49.164Z,16.92
2018-04-15T19:34:17.816Z,16.88
2018-04-15T19:36:46.488Z,16.79
2018-04-15T19:39:15.365Z,16.71
2018-04-15T19:41:44.847Z,16.70
2018-04-15T19:44:15.286Z,16.69
2018-04-15T19:46:43.936Z,16.64
2018-04-15T19:49:13.584Z,16.58
2018-04-15T19:51:42.173Z,16.53
2018-04-15T19:54:10.905Z,16.48
2018-04-15T19:56:39.824Z,16.41
2018-04-15T19:59:08.201Z,16.40
2018-04-15T20:01:36.796Z,16.39
2018-04-15T20:04:05.302Z,16.40
2018-04-15T20:06:33.871Z,16.37
2018-04-15T20:09:02.477Z,16.34
2018-04-15T20:11:31.276Z,16.28
2018-04-15T20:14:00.059Z,16.25
2018-04-15T20:16:28.761Z,16.20
2018-04-15T20:18:57.175Z,16.14
2018-04-15T20:21:25.569Z,16.07
2018-04-15T20:23:55.030Z,16.05
2018-04-15T20:26:23.799Z,16.09
2018-04-15T20:28:53.534Z,16.07
2018-04-15T20:31:21.904Z,16.05
2018-04-15T20:33:50.364Z,16.06
2018-04-15T20:36:19.129Z,16.08
2018-04-15T20:38:47.615Z,16.11
2018-04-15T20:41:16.264Z,16.13
2018-04-15T20:43:44.665Z,16.10
2018-04-15T20:46:13.183Z,16.08
2018-04-15T20:48:41.536Z,16.02
2018-04-15T20:51:09.933Z,16.02
2018-04-15T20:53:39.124Z,16.06
2018-04-15T20:56:08.544Z,16.04
2018-04-15T20:58:37.082Z,16.03
2018-04-15T21:01:06.448Z,15.95
2018-04-15T21:03:36.586Z,15.92
2018-04-15T21:06:04.991Z,15.86
2018-04-15T21:08:33.711Z,15.82
2018-04-15T21:11:02.492Z,15.79
2018-04-15T21:13:31.006Z,15.74
2018-04-15T21:15:59.555Z,15.68
2018-04-15T21:18:28.156Z,15.71
2018-04-15T21:20:56.790Z,15.72
2018-04-15T21:23:25.285Z,15.75
2018-04-15T21:25:56.830Z,15.76
2018-04-15T21:28:28.411Z,15.76
2018-04-15T21:30:59.660Z,15.74
2018-04-15T21:33:29.934Z,15.75
2018-04-15T21:35:59.100Z,15.74
2018-04-15T21:38:28.633Z,15.69
2018-04-15T21:40:57.157Z,15.63
2018-04-15T21:43:25.694Z,15.59
2018-04-15T21:45:56.024Z,15.60
2018-04-15T21:48:25.224Z,15.63
2018-04-15T21:50:53.863Z,15.64
2018-04-15T21:53:28.812Z,15.69
2018-04-15T21:56:00.940Z,15.69
2018-04-15T21:58:29.875Z,15.65
2018-04-15T22:00:58.381Z,15.59
2018-04-15T22:03:27.204Z,15.59
2018-04-15T22:05:55.638Z,15.61
2018-04-15T22:08:24.719Z,15.63
2018-04-15T22:10:53.839Z,15.64
2018-04-15T22:13:23.927Z,15.64
2018-04-15T22:15:53.144Z,15.62
2018-04-15T22:18:21.897Z,15.61
2018-04-15T22:20:50.277Z,15.59
2018-04-15T22:23:18.653Z,15.51
2018-04-15T22:25:47.070Z,15.42
2018-04-15T22:28:15.471Z,15.34
2018-04-15T22:30:43.923Z,15.21
2018-04-15T22:33:12.403Z,15.14
2018-04-15T22:35:40.850Z,15.10
2018-04-15T22:38:09.273Z,15.07
2018-04-15T22:40:37.756Z,15.04
2018-04-15T22:43:06.145Z,14.99
2018-04-15T22:45:34.503Z,14.98
2018-04-15T22:48:05.036Z,14.94
2018-04-15T22:50:37.767Z,14.88
2018-04-15T22:53:06.312Z,14.85
2018-04-15T22:55:34.668Z,14.81
2018-04-15T22:58:05.500Z,14.76
2018-04-15T23:00:33.944Z,14.75
2018-04-15T23:03:02.314Z,14.72
2018-04-15T23:05:30.719Z,14.69
2018-04-15T23:07:59.103Z,14.70
2018-04-15T23:10:27.969Z,14.71
2018-04-15T23:12:56.734Z,14.72
2018-04-15T23:15:25.423Z,14.75
2018-04-15T23:17:54.179Z,14.78
2018-04-15T23:20:22.787Z,14.78
2018-04-15T23:22:51.372Z,14.78
2018-04-15T23:25:19.737Z,14.79
2018-04-15T23:27:48.207Z,14.80
2018-04-15T23:30:16.564Z,14.79
2018-04-15T23:32:45.061Z,14.76
2018-04-15T23:35:13.415Z,14.73
2018-04-15T23:37:41.774Z,14.71
2018-04-15T23:40:10.144Z,14.69
2018-04-15T23:42:38.892Z,14.67
2018-04-15T23:45:07.578Z,14.65
2018-04-15T23:47:36.042Z,14.64
2018-04-15T23:50:04.493Z,14.62
2018-04-15T23:52:33.113Z,14.59
2018-04-15T23:55:01.555Z,14.53
2018-04-15T23:57:30.583Z,14.52
2018-04-15T23:59:59.066Z,14.52
